ΕΜΥ, Εθνική Μετεωρολογική Υπηρεσία - Δελτία Καιρού, Προγνώσεις

ΑΕΡΟΝΑΥΤΙΛΙΑ

GREEK AIRPORTS CODES

TAF LGTL 071700Z 0718/0803 36015KT 9999 FEW020=

EUROPEAN AIRPORTS CODES

LFPO 071630Z 36009KT 330V030 9999 SCT039 BKN047 21/12 Q1028NOSIG=